Time;durP1;ratioP1;P1;durP2;ratioP2;P2;SDS_P1;SDS_P2;PMS_P1;PMS_P2;Temp;Humidity;BMP_temperature;BMP_pressure;BME280_temperature;BME280_humidity;BME280_pressure;Samples;Min_cycle;Max_cycle;Signal;HPM_P1;HPM_P2
2021/12/26 00:00:16;;;;;;;;;;;-5.20;99.90;;;;;;5025623;28;19916;-70
2021/12/26 00:02:41;;;;;;;;;;;-5.20;99.90;;;;;;5025932;28;19909;-69
2021/12/26 00:05:08;;;;;;;;;;;-5.10;99.90;;;;;;5025473;28;19952;-69
2021/12/26 00:07:34;;;;;;;;;;;-5.20;99.90;;;;;;5025625;28;19970;-69
2021/12/26 00:10:00;;;;;;;;;;;-5.20;99.90;;;;;;5025692;28;19928;-70
2021/12/26 00:12:26;;;;;;;;;;;-5.20;99.90;;;;;;5025286;28;19906;-70
2021/12/26 00:14:52;;;;;;;;;;;-5.20;99.90;;;;;;5025825;28;19928;-71
2021/12/26 00:17:18;;;;;;;;;;;-5.30;99.90;;;;;;5025303;28;19918;-70
2021/12/26 00:19:44;;;;;;;;;;;-5.30;99.90;;;;;;5025380;28;19920;-69
2021/12/26 00:22:09;;;;;;;;;;;-5.30;99.90;;;;;;5025692;28;19933;-70
2021/12/26 00:24:35;;;;;;;;;;;-5.30;99.90;;;;;;5029004;28;19909;-70
2021/12/26 00:27:01;;;;;;;;;;;-5.30;99.90;;;;;;5025324;28;19916;-70
2021/12/26 00:29:27;;;;;;;;;;;-5.30;99.90;;;;;;5025429;28;19996;-70
2021/12/26 00:31:52;;;;;;;;;;;-5.30;99.90;;;;;;5007667;28;19905;-69
2021/12/26 00:34:18;;;;;;;;;;;-5.40;99.90;;;;;;5038144;28;19911;-70
2021/12/26 00:36:44;;;;;;;;;;;-5.40;99.90;;;;;;5045046;28;19909;-70
2021/12/26 00:39:10;;;;;;;;;;;-5.40;99.90;;;;;;5045136;28;19909;-69
2021/12/26 00:41:39;;;;;;;;;;;-5.40;99.90;;;;;;5044223;28;19905;-69
2021/12/26 00:44:06;;;;;;;;;;;-5.40;99.90;;;;;;5045105;28;19905;-70
2021/12/26 00:46:31;;;;;;;;;;;-5.40;99.90;;;;;;5045034;28;19936;-70
2021/12/26 00:48:57;;;;;;;;;;;-5.40;99.90;;;;;;5044609;28;19906;-70
2021/12/26 00:51:22;;;;;;;;;;;-5.40;99.90;;;;;;5045259;28;19912;-69
2021/12/26 00:53:48;;;;;;;;;;;-5.40;99.90;;;;;;5036421;28;19909;-70
2021/12/26 00:56:15;;;;;;;;;;;-5.50;99.90;;;;;;5024786;28;19997;-70
2021/12/26 00:58:40;;;;;;;;;;;-5.40;99.90;;;;;;5025322;28;20277;-69
2021/12/26 01:01:06;;;;;;;;;;;-5.40;99.90;;;;;;5024807;28;19910;-70
2021/12/26 01:03:31;;;;;;;;;;;-5.40;99.90;;;;;;5023846;28;19909;-69
2021/12/26 01:05:57;;;;;;;;;;;-5.40;99.90;;;;;;5025239;28;19977;-69
2021/12/26 01:08:29;;;;;;;;;;;-5.40;99.90;;;;;;5024924;28;19916;-69
2021/12/26 01:11:00;;;;;;;;;;;-5.50;99.90;;;;;;5025132;28;19912;-69
2021/12/26 01:13:35;;;;;;;;;;;-5.60;99.90;;;;;;5025275;28;19906;-69
2021/12/26 01:16:03;;;;;;;;;;;-5.60;99.90;;;;;;5029741;28;19921;-69
2021/12/26 01:18:31;;;;;;;;;;;-5.60;99.90;;;;;;5044667;28;19982;-69
2021/12/26 01:21:05;;;;;;;;;;;-5.60;99.90;;;;;;5044775;28;19912;-69
2021/12/26 01:23:31;;;;;;;;;;;-5.60;99.90;;;;;;5044494;28;20002;-69
2021/12/26 01:25:57;;;;;;;;;;;-5.60;99.90;;;;;;5044851;28;19905;-70
2021/12/26 01:28:27;;;;;;;;;;;-5.60;99.90;;;;;;5044822;28;19905;-70
2021/12/26 01:30:53;;;;;;;;;;;-5.60;99.90;;;;;;5044375;28;19912;-70
2021/12/26 01:33:20;;;;;;;;;;;-5.70;99.90;;;;;;5044736;28;19996;-70
2021/12/26 01:35:46;;;;;;;;;;;-5.70;99.90;;;;;;5044917;28;19936;-69
2021/12/26 01:38:14;;;;;;;;;;;-5.70;99.90;;;;;;5044170;28;19916;-69
2021/12/26 01:40:50;;;;;;;;;;;-5.70;99.90;;;;;;5044627;28;19913;-69
2021/12/26 01:43:18;;;;;;;;;;;-5.70;99.90;;;;;;5044890;28;20020;-69
2021/12/26 01:45:43;;;;;;;;;;;-5.70;99.90;;;;;;5044289;28;19909;-69
2021/12/26 01:48:09;;;;;;;;;;;-5.70;99.90;;;;;;5044602;28;20055;-69
2021/12/26 01:50:35;;;;;;;;;;;-5.70;99.90;;;;;;5044741;28;20281;-69
2021/12/26 01:53:01;;;;;;;;;;;-5.70;99.90;;;;;;5044244;28;19916;-69
2021/12/26 01:55:39;;;;;;;;;;;-5.70;99.90;;;;;;5047589;28;19905;-69
2021/12/26 01:58:05;;;;;;;;;;;-5.80;99.90;;;;;;5047605;28;19913;-69
2021/12/26 02:00:31;;;;;;;;;;;-5.80;99.90;;;;;;5047922;28;19905;-69
2021/12/26 02:02:56;;;;;;;;;;;-5.80;99.90;;;;;;5047890;28;19905;-69
2021/12/26 02:05:22;;;;;;;;;;;-5.80;99.90;;;;;;5047578;28;20009;-70
2021/12/26 02:07:48;;;;;;;;;;;-5.80;99.90;;;;;;5047867;28;19909;-69
2021/12/26 02:10:14;;;;;;;;;;;-5.80;99.90;;;;;;5043392;28;19956;-70
2021/12/26 02:12:40;;;;;;;;;;;-5.80;99.90;;;;;;5044935;28;19909;-69
2021/12/26 02:15:06;;;;;;;;;;;-5.80;99.90;;;;;;5045087;28;20412;-69
2021/12/26 02:17:31;;;;;;;;;;;-5.80;99.90;;;;;;5046919;28;19925;-69
2021/12/26 02:20:21;;;;;;;;;;;-5.80;99.90;;;;;;5046537;28;20270;-70
2021/12/26 02:22:57;;;;;;;;;;;-5.80;99.90;;;;;;5039007;28;19905;-71
2021/12/26 02:28:07;;;;;;;;;;;-5.90;99.90;;;;;;5046944;28;19916;-69
2021/12/26 02:30:32;;;;;;;;;;;-5.90;99.90;;;;;;5046814;28;19905;-69
2021/12/26 02:33:00;;;;;;;;;;;-5.90;99.90;;;;;;5047173;28;19912;-70
2021/12/26 02:35:26;;;;;;;;;;;-5.90;99.90;;;;;;5046616;28;19905;-69
2021/12/26 02:37:52;;;;;;;;;;;-6.00;99.90;;;;;;5047100;28;20350;-70
2021/12/26 02:40:17;;;;;;;;;;;-6.00;99.90;;;;;;5029262;28;19912;-70
2021/12/26 02:42:43;;;;;;;;;;;-6.00;99.90;;;;;;5029374;28;19905;-69
2021/12/26 02:45:09;;;;;;;;;;;-6.00;99.90;;;;;;5047207;28;19916;-69
2021/12/26 02:47:34;;;;;;;;;;;-6.00;99.90;;;;;;5046814;28;19905;-69
2021/12/26 02:50:01;;;;;;;;;;;-6.00;99.90;;;;;;5047195;28;19905;-69
2021/12/26 02:52:27;;;;;;;;;;;-6.00;99.90;;;;;;5047183;28;19939;-69
2021/12/26 02:54:53;;;;;;;;;;;-6.00;99.90;;;;;;5046657;28;19905;-69
2021/12/26 02:57:18;;;;;;;;;;;-6.10;99.90;;;;;;5046976;28;19913;-69
2021/12/26 02:59:44;;;;;;;;;;;-6.00;99.90;;;;;;5047175;28;19927;-69
2021/12/26 03:02:09;;;;;;;;;;;-6.10;99.90;;;;;;5046298;28;19951;-69
2021/12/26 03:04:35;;;;;;;;;;;-6.10;99.90;;;;;;5046404;28;19951;-69
2021/12/26 03:07:04;;;;;;;;;;;-6.10;99.90;;;;;;5046811;28;19909;-70
2021/12/26 03:09:33;;;;;;;;;;;-6.10;99.90;;;;;;5046340;28;19905;-69
2021/12/26 03:11:58;;;;;;;;;;;-6.10;99.90;;;;;;5046237;28;19955;-69
2021/12/26 03:14:25;;;;;;;;;;;-6.10;99.90;;;;;;5028504;28;19963;-70
2021/12/26 03:16:52;;;;;;;;;;;-6.10;99.90;;;;;;5045522;28;19978;-69
2021/12/26 03:19:17;;;;;;;;;;;-6.20;99.90;;;;;;5046565;28;19909;-70
2021/12/26 03:21:43;;;;;;;;;;;-6.20;99.90;;;;;;5045957;28;19909;-69
2021/12/26 03:24:08;;;;;;;;;;;-6.20;99.90;;;;;;5027664;28;19909;-69
2021/12/26 03:26:37;;;;;;;;;;;-6.20;99.90;;;;;;5046512;28;20257;-69
2021/12/26 03:29:02;;;;;;;;;;;-6.20;99.90;;;;;;5046382;28;19905;-69
2021/12/26 03:31:28;;;;;;;;;;;-6.20;99.90;;;;;;5045977;28;19904;-69
2021/12/26 03:33:53;;;;;;;;;;;-6.20;99.90;;;;;;5046532;28;19967;-69
2021/12/26 03:36:20;;;;;;;;;;;-6.20;99.90;;;;;;5046500;28;19905;-70
2021/12/26 03:38:45;;;;;;;;;;;-6.20;99.90;;;;;;5045949;28;19913;-69
2021/12/26 03:41:11;;;;;;;;;;;-6.20;99.90;;;;;;5046268;28;19916;-69
2021/12/26 03:43:37;;;;;;;;;;;-6.20;99.90;;;;;;5045837;28;19935;-69
2021/12/26 03:46:02;;;;;;;;;;;-6.20;99.90;;;;;;5045672;28;19905;-69
2021/12/26 03:48:28;;;;;;;;;;;-6.20;99.90;;;;;;5046045;28;19905;-69
2021/12/26 03:50:54;;;;;;;;;;;-6.20;99.90;;;;;;5045619;28;19933;-70
2021/12/26 03:53:20;;;;;;;;;;;-6.20;99.90;;;;;;5045915;28;19905;-70
2021/12/26 03:55:47;;;;;;;;;;;-6.20;99.90;;;;;;5046260;28;19968;-69
2021/12/26 03:58:13;;;;;;;;;;;-6.20;99.90;;;;;;5045410;28;19920;-69
2021/12/26 04:00:39;;;;;;;;;;;-6.20;99.90;;;;;;5045589;28;19909;-69
2021/12/26 04:03:05;;;;;;;;;;;-6.20;99.90;;;;;;5045717;28;19955;-69
2021/12/26 04:05:30;;;;;;;;;;;-6.20;99.90;;;;;;5045264;28;19904;-69
2021/12/26 04:07:56;;;;;;;;;;;-6.30;99.90;;;;;;5044490;28;20003;-69
2021/12/26 04:10:23;;;;;;;;;;;-6.30;99.90;;;;;;5045741;28;20312;-70
2021/12/26 04:12:51;;;;;;;;;;;-6.30;99.90;;;;;;5043891;28;19912;-69
2021/12/26 04:15:19;;;;;;;;;;;-6.30;99.90;;;;;;5045947;28;19905;-69
2021/12/26 04:17:51;;;;;;;;;;;-6.30;99.90;;;;;;5025099;28;19917;-69
2021/12/26 04:20:16;;;;;;;;;;;-6.40;99.90;;;;;;5025284;28;19906;-70
2021/12/26 04:22:42;;;;;;;;;;;-6.40;99.90;;;;;;5025108;28;19929;-69
2021/12/26 04:25:18;;;;;;;;;;;-6.40;99.90;;;;;;5025434;28;19956;-69
2021/12/26 04:27:43;;;;;;;;;;;-6.40;99.90;;;;;;5025346;28;20365;-69
2021/12/26 04:30:10;;;;;;;;;;;-6.30;99.90;;;;;;5025596;28;19940;-69
2021/12/26 04:32:36;;;;;;;;;;;-6.40;99.90;;;;;;5025633;28;19963;-69
2021/12/26 04:35:01;;;;;;;;;;;-6.30;99.90;;;;;;5025140;28;19910;-69
2021/12/26 04:37:27;;;;;;;;;;;-6.40;99.90;;;;;;5025415;28;20389;-69
2021/12/26 04:39:52;;;;;;;;;;;-6.40;99.90;;;;;;5024351;28;20353;-69
2021/12/26 04:42:22;;;;;;;;;;;-6.40;99.90;;;;;;5025202;28;19912;-69
2021/12/26 04:44:50;;;;;;;;;;;-6.40;99.90;;;;;;5025680;28;19909;-70
2021/12/26 04:47:16;;;;;;;;;;;-6.40;99.90;;;;;;5025411;28;20367;-69
2021/12/26 04:49:42;;;;;;;;;;;-6.40;99.90;;;;;;5025232;28;19909;-70
2021/12/26 04:52:07;;;;;;;;;;;-6.40;99.90;;;;;;5025632;28;19916;-70
2021/12/26 04:54:33;;;;;;;;;;;-6.40;99.90;;;;;;5025086;28;20047;-69
2021/12/26 04:56:58;;;;;;;;;;;-6.40;99.90;;;;;;5025137;28;20353;-70
2021/12/26 04:59:29;;;;;;;;;;;-6.50;99.90;;;;;;5025381;28;19905;-71
2021/12/26 05:01:55;;;;;;;;;;;-6.50;99.90;;;;;;5024904;28;19906;-69
2021/12/26 05:04:21;;;;;;;;;;;-6.40;99.90;;;;;;5023800;28;19906;-70
2021/12/26 05:06:52;;;;;;;;;;;-6.40;99.90;;;;;;5007984;28;19906;-69
2021/12/26 05:09:18;;;;;;;;;;;-6.40;99.90;;;;;;5025071;28;20373;-69
2021/12/26 05:11:43;;;;;;;;;;;-6.40;99.90;;;;;;5025430;28;19905;-69
2021/12/26 05:14:09;;;;;;;;;;;-6.40;99.90;;;;;;5007453;28;20365;-69
2021/12/26 05:16:35;;;;;;;;;;;-6.50;99.90;;;;;;5024371;28;19917;-70
2021/12/26 05:19:00;;;;;;;;;;;-6.50;99.90;;;;;;5007376;28;20277;-69
2021/12/26 05:21:25;;;;;;;;;;;-6.50;99.90;;;;;;5024483;28;19912;-69
2021/12/26 05:23:51;;;;;;;;;;;-6.50;99.90;;;;;;5025017;28;19937;-70
2021/12/26 05:26:17;;;;;;;;;;;-6.50;99.90;;;;;;5025129;28;19964;-70
2021/12/26 05:28:43;;;;;;;;;;;-6.50;99.90;;;;;;5026906;28;19916;-68
2021/12/26 05:31:08;;;;;;;;;;;-6.50;99.90;;;;;;5029832;28;19913;-69
2021/12/26 05:33:33;;;;;;;;;;;-6.50;99.90;;;;;;5048414;28;20273;-68
2021/12/26 05:35:59;;;;;;;;;;;-6.50;99.90;;;;;;5030651;28;19905;-69
2021/12/26 05:38:27;;;;;;;;;;;-6.50;99.90;;;;;;5043015;28;19914;-70
2021/12/26 05:40:53;;;;;;;;;;;-6.50;99.90;;;;;;5028617;28;19906;-68
2021/12/26 05:43:20;;;;;;;;;;;-6.50;99.90;;;;;;5028508;28;19913;-70
2021/12/26 05:45:45;;;;;;;;;;;-6.60;99.90;;;;;;5028252;28;19977;-69
2021/12/26 05:48:11;;;;;;;;;;;-6.60;99.90;;;;;;5028405;28;19909;-69
2021/12/26 05:50:36;;;;;;;;;;;-6.60;99.90;;;;;;5028322;28;19956;-68
2021/12/26 05:53:02;;;;;;;;;;;-6.60;99.90;;;;;;5028072;28;19905;-69
2021/12/26 05:55:27;;;;;;;;;;;-6.70;99.90;;;;;;5028368;28;19905;-69
2021/12/26 05:57:53;;;;;;;;;;;-6.70;99.90;;;;;;5028017;28;19924;-69
2021/12/26 06:00:20;;;;;;;;;;;-6.70;99.90;;;;;;5027809;28;19913;-69
2021/12/26 06:02:50;;;;;;;;;;;-6.80;99.90;;;;;;5028234;28;19905;-69
2021/12/26 06:05:17;;;;;;;;;;;-6.80;99.90;;;;;;5028335;28;20004;-69
2021/12/26 06:07:43;;;;;;;;;;;-6.80;99.90;;;;;;5028085;28;19964;-68
2021/12/26 06:10:09;;;;;;;;;;;-6.90;99.90;;;;;;5028234;28;19913;-68
2021/12/26 06:12:34;;;;;;;;;;;-6.90;99.90;;;;;;5027727;28;19905;-68
2021/12/26 06:15:00;;;;;;;;;;;-6.80;99.90;;;;;;5027776;28;19941;-69
2021/12/26 06:17:25;;;;;;;;;;;-6.90;99.90;;;;;;5027623;28;19924;-69
2021/12/26 06:19:56;;;;;;;;;;;-7.00;99.90;;;;;;5038901;28;19924;-70
2021/12/26 06:22:22;;;;;;;;;;;-6.90;99.90;;;;;;5036447;28;19912;-70
2021/12/26 06:24:47;;;;;;;;;;;-6.90;99.90;;;;;;5044126;28;19975;-70
2021/12/26 06:27:12;;;;;;;;;;;-7.00;99.90;;;;;;5047275;28;19971;-69
2021/12/26 06:29:38;;;;;;;;;;;-6.90;99.90;;;;;;5047504;28;19971;-69
2021/12/26 06:32:04;;;;;;;;;;;-6.90;99.90;;;;;;5047430;28;20294;-70
2021/12/26 06:34:29;;;;;;;;;;;-6.90;99.90;;;;;;5047051;28;19952;-70
2021/12/26 06:36:55;;;;;;;;;;;-6.90;99.90;;;;;;5046141;28;19939;-69
2021/12/26 06:39:20;;;;;;;;;;;-6.90;99.90;;;;;;5041745;28;19912;-68
2021/12/26 06:41:46;;;;;;;;;;;-6.90;99.90;;;;;;5026990;28;19913;-69
2021/12/26 06:44:11;;;;;;;;;;;-6.90;99.90;;;;;;5027160;28;19905;-69
2021/12/26 06:46:37;;;;;;;;;;;-6.90;99.90;;;;;;5027580;28;19909;-69
2021/12/26 06:49:03;;;;;;;;;;;-6.90;99.90;;;;;;5047088;28;19911;-69
2021/12/26 06:51:29;;;;;;;;;;;-6.90;99.90;;;;;;5047086;28;19905;-69
2021/12/26 06:53:55;;;;;;;;;;;-6.90;99.90;;;;;;5046963;28;19948;-70
2021/12/26 06:56:20;;;;;;;;;;;-6.90;99.90;;;;;;5046647;28;19912;-69
2021/12/26 06:58:45;;;;;;;;;;;-6.90;99.90;;;;;;5046799;28;19920;-69
2021/12/26 07:01:11;;;;;;;;;;;-7.00;99.90;;;;;;5046172;28;19936;-69
2021/12/26 07:03:37;;;;;;;;;;;-7.00;99.90;;;;;;5046483;28;20003;-69
2021/12/26 07:06:02;;;;;;;;;;;-7.00;99.90;;;;;;5034558;28;19917;-72
2021/12/26 07:08:28;;;;;;;;;;;-7.00;99.90;;;;;;5043349;28;19955;-72
2021/12/26 07:10:53;;;;;;;;;;;-7.00;99.90;;;;;;5036783;28;19972;-72
2021/12/26 07:13:19;;;;;;;;;;;-6.90;99.90;;;;;;5019207;28;19969;-73
2021/12/26 07:15:44;;;;;;;;;;;-7.00;99.90;;;;;;5023682;28;19923;-72
2021/12/26 07:18:10;;;;;;;;;;;-7.00;99.90;;;;;;5057801;28;20011;-72
2021/12/26 07:20:35;;;;;;;;;;;-7.00;99.90;;;;;;5061993;28;19916;-72
2021/12/26 07:23:05;;;;;;;;;;;-7.00;99.90;;;;;;5058688;28;19913;-72
2021/12/26 07:25:30;;;;;;;;;;;-7.00;99.90;;;;;;5053897;28;19988;-72
2021/12/26 07:27:56;;;;;;;;;;;-6.90;99.90;;;;;;5065105;28;19983;-73
2021/12/26 07:30:22;;;;;;;;;;;-7.00;99.90;;;;;;5053874;28;19916;-73
2021/12/26 07:32:47;;;;;;;;;;;-6.90;99.90;;;;;;5060711;28;20349;-72
2021/12/26 07:35:13;;;;;;;;;;;-6.90;99.90;;;;;;5057672;28;20035;-70
2021/12/26 07:37:38;;;;;;;;;;;-6.90;99.90;;;;;;5064978;28;19966;-72
2021/12/26 07:40:04;;;;;;;;;;;-6.90;99.90;;;;;;5063727;28;19916;-72
2021/12/26 07:42:30;;;;;;;;;;;-6.90;99.90;;;;;;5066766;28;19904;-71
2021/12/26 07:44:56;;;;;;;;;;;-6.90;99.90;;;;;;5065405;28;19968;-72
2021/12/26 07:47:21;;;;;;;;;;;-6.90;99.90;;;;;;5066146;28;19909;-73
2021/12/26 07:49:47;;;;;;;;;;;-6.80;99.90;;;;;;5052055;28;19913;-72
2021/12/26 07:52:21;;;;;;;;;;;-6.80;99.90;;;;;;5044671;28;19905;-72
2021/12/26 07:54:47;;;;;;;;;;;-6.80;99.90;;;;;;5045987;28;19909;-72
2021/12/26 07:57:13;;;;;;;;;;;-6.80;99.90;;;;;;5060569;28;19912;-72
2021/12/26 07:59:39;;;;;;;;;;;-6.80;99.90;;;;;;5064026;28;19909;-71
2021/12/26 08:02:05;;;;;;;;;;;-6.80;99.90;;;;;;5046403;28;19908;-72
2021/12/26 08:04:30;;;;;;;;;;;-6.80;99.90;;;;;;5045692;28;19904;-72
2021/12/26 08:06:58;;;;;;;;;;;-6.70;99.90;;;;;;5057392;28;19908;-72
2021/12/26 08:09:23;;;;;;;;;;;-6.70;99.90;;;;;;5057534;28;20004;-72
2021/12/26 08:11:49;;;;;;;;;;;-6.50;99.90;;;;;;5045047;28;19915;-72
2021/12/26 08:14:15;;;;;;;;;;;-6.40;99.90;;;;;;5065287;28;20004;-72
2021/12/26 08:16:41;;;;;;;;;;;-6.10;99.90;;;;;;5059519;28;19916;-73
2021/12/26 08:19:09;;;;;;;;;;;-5.70;99.90;;;;;;5058308;28;19928;-72
2021/12/26 08:21:35;;;;;;;;;;;-5.30;99.90;;;;;;5058088;28;19909;-72
2021/12/26 08:24:01;;;;;;;;;;;-4.80;99.90;;;;;;5055197;28;19976;-72
2021/12/26 08:26:26;;;;;;;;;;;-4.40;99.90;;;;;;5050733;28;19909;-72
2021/12/26 08:28:52;;;;;;;;;;;-4.00;99.90;;;;;;5048644;28;19909;-72
2021/12/26 08:31:19;;;;;;;;;;;-3.50;99.90;;;;;;5047016;28;19912;-72
2021/12/26 08:33:45;;;;;;;;;;;-3.30;99.90;;;;;;5044794;28;19909;-72
2021/12/26 08:36:10;;;;;;;;;;;-2.90;99.90;;;;;;5050962;28;19911;-72
2021/12/26 08:38:37;;;;;;;;;;;-2.60;99.90;;;;;;5062410;28;20433;-72
2021/12/26 08:41:02;;;;;;;;;;;-2.20;99.90;;;;;;5053588;28;19905;-72
2021/12/26 08:43:28;;;;;;;;;;;-1.90;99.90;;;;;;5055773;28;19931;-72
2021/12/26 08:45:54;;;;;;;;;;;-1.80;99.90;;;;;;5064263;28;19947;-72
2021/12/26 08:48:20;;;;;;;;;;;-1.90;99.90;;;;;;5054386;28;19931;-73
2021/12/26 08:50:45;;;;;;;;;;;-1.90;99.90;;;;;;5049206;28;19905;-72
2021/12/26 08:53:12;;;;;;;;;;;-2.10;99.90;;;;;;5049730;28;19924;-72
2021/12/26 08:55:38;;;;;;;;;;;-2.40;99.90;;;;;;5057672;28;19912;-72
2021/12/26 08:58:06;;;;;;;;;;;-2.60;99.90;;;;;;5064038;28;19962;-72
2021/12/26 09:00:32;;;;;;;;;;;-2.80;99.90;;;;;;5064219;28;20399;-72
2021/12/26 09:02:58;;;;;;;;;;;-3.00;99.90;;;;;;5060007;28;20324;-73
2021/12/26 09:05:23;;;;;;;;;;;-3.10;99.90;;;;;;5055741;28;19973;-72
2021/12/26 09:07:49;;;;;;;;;;;-3.20;99.90;;;;;;5068017;28;19996;-73
2021/12/26 09:10:14;;;;;;;;;;;-3.30;99.90;;;;;;5069104;28;19944;-71
2021/12/26 09:12:40;;;;;;;;;;;-3.40;99.90;;;;;;5068761;28;19908;-72
2021/12/26 09:15:07;;;;;;;;;;;-3.40;99.90;;;;;;5068483;28;19995;-72
2021/12/26 09:30:41;;;;;;;;;;;-1.20;99.90;;;;;;5339862;23;19928;-71
2021/12/26 09:33:07;;;;;;;;;;;-0.70;99.90;;;;;;5057349;28;19913;-72
2021/12/26 09:35:32;;;;;;;;;;;-0.40;99.90;;;;;;5048898;28;19968;-72
2021/12/26 09:37:59;;;;;;;;;;;-0.10;99.90;;;;;;5049414;28;19913;-73
2021/12/26 09:40:26;;;;;;;;;;;0.10;99.90;;;;;;5065463;28;19936;-73
2021/12/26 09:42:51;;;;;;;;;;;0.30;99.90;;;;;;5065272;28;19948;-73
2021/12/26 09:45:18;;;;;;;;;;;0.30;99.90;;;;;;5054604;28;19909;-73
2021/12/26 09:47:45;;;;;;;;;;;0.40;99.90;;;;;;5063476;28;20335;-73
2021/12/26 09:50:12;;;;;;;;;;;0.50;99.90;;;;;;5059767;28;19909;-73
2021/12/26 09:52:42;;;;;;;;;;;0.50;99.90;;;;;;5064541;28;19912;-72
2021/12/26 09:55:07;;;;;;;;;;;0.60;99.90;;;;;;5065324;28;19917;-73
2021/12/26 09:57:33;;;;;;;;;;;0.80;99.90;;;;;;5065112;28;19923;-73
2021/12/26 09:59:59;;;;;;;;;;;0.80;99.90;;;;;;5057053;28;20392;-72
2021/12/26 10:02:27;;;;;;;;;;;0.90;99.90;;;;;;5054939;28;19912;-73
2021/12/26 10:04:55;;;;;;;;;;;0.90;99.90;;;;;;5054789;28;19905;-73
2021/12/26 10:07:22;;;;;;;;;;;1.00;99.90;;;;;;5067420;28;19912;-72
2021/12/26 10:09:49;;;;;;;;;;;1.10;99.90;;;;;;5065583;28;19912;-74
2021/12/26 10:12:15;;;;;;;;;;;1.40;99.90;;;;;;5067444;28;20004;-74
2021/12/26 10:14:43;;;;;;;;;;;1.70;99.90;;;;;;5066263;28;19905;-74
2021/12/26 10:17:10;;;;;;;;;;;1.80;99.90;;;;;;5066543;28;20327;-75
2021/12/26 10:19:38;;;;;;;;;;;2.10;99.90;;;;;;5067160;28;20356;-75
2021/12/26 10:22:05;;;;;;;;;;;2.40;99.90;;;;;;5065936;28;19904;-74
2021/12/26 10:24:31;;;;;;;;;;;2.70;99.90;;;;;;5063044;28;19976;-74
2021/12/26 10:27:02;;;;;;;;;;;2.80;99.90;;;;;;5066113;28;19936;-74
2021/12/26 10:29:37;;;;;;;;;;;3.00;99.90;;;;;;5053388;28;20007;-74
2021/12/26 10:32:05;;;;;;;;;;;3.00;99.90;;;;;;5009479;28;19971;-73
2021/12/26 10:34:38;;;;;;;;;;;2.90;99.90;;;;;;5042609;28;19905;-74
2021/12/26 10:37:06;;;;;;;;;;;2.70;99.90;;;;;;5041853;28;19913;-74
2021/12/26 10:39:33;;;;;;;;;;;2.70;99.90;;;;;;5030526;28;19905;-74
2021/12/26 10:42:04;;;;;;;;;;;2.80;99.90;;;;;;5016194;28;19906;-74
2021/12/26 10:44:32;;;;;;;;;;;2.70;99.90;;;;;;5034869;28;20329;-74
2021/12/26 10:47:01;;;;;;;;;;;2.40;99.90;;;;;;5033581;28;19905;-75
2021/12/26 10:49:34;;;;;;;;;;;2.40;99.90;;;;;;5029325;28;19905;-75
2021/12/26 10:52:00;;;;;;;;;;;2.60;99.90;;;;;;5042548;28;19909;-75
2021/12/26 10:54:31;;;;;;;;;;;2.80;99.90;;;;;;5046151;28;19941;-73
2021/12/26 10:57:04;;;;;;;;;;;3.10;99.90;;;;;;5045965;28;19932;-75
2021/12/26 10:59:30;;;;;;;;;;;3.30;99.90;;;;;;5011732;28;19913;-75
2021/12/26 11:01:56;;;;;;;;;;;3.60;99.90;;;;;;5028590;28;20066;-75
2021/12/26 11:04:24;;;;;;;;;;;3.80;99.90;;;;;;5017467;28;19928;-75
2021/12/26 11:07:20;;;;;;;;;;;4.10;99.90;;;;;;5039766;28;19909;-75
2021/12/26 11:09:59;;;;;;;;;;;4.40;99.90;;;;;;5029043;28;20432;-76
2021/12/26 11:12:34;;;;;;;;;;;4.80;99.90;;;;;;5045790;28;19916;-77
2021/12/26 11:15:01;;;;;;;;;;;5.00;99.90;;;;;;5038161;28;19906;-76
2021/12/26 11:17:32;;;;;;;;;;;5.20;99.90;;;;;;5021021;28;20288;-77
2021/12/26 11:20:01;;;;;;;;;;;5.40;99.90;;;;;;5037482;28;19940;-76
2021/12/26 11:22:29;;;;;;;;;;;5.70;99.90;;;;;;5046871;28;19927;-76
2021/12/26 11:24:54;;;;;;;;;;;6.00;99.90;;;;;;5045629;28;19909;-76
2021/12/26 11:27:20;;;;;;;;;;;5.90;99.90;;;;;;5043217;28;19909;-76
2021/12/26 11:29:49;;;;;;;;;;;5.90;99.90;;;;;;5041949;28;19916;-76
2021/12/26 11:32:21;;;;;;;;;;;5.80;99.90;;;;;;5046981;28;19944;-78
2021/12/26 11:34:47;;;;;;;;;;;6.00;99.90;;;;;;5046890;28;19913;-77
2021/12/26 11:37:12;;;;;;;;;;;5.80;99.90;;;;;;5065212;28;19911;-76
2021/12/26 11:39:39;;;;;;;;;;;5.60;99.90;;;;;;5065312;28;19904;-75
2021/12/26 11:42:04;;;;;;;;;;;5.70;99.90;;;;;;5061562;28;19932;-75
2021/12/26 11:44:51;;;;;;;;;;;6.00;99.90;;;;;;5053218;28;19955;-76
2021/12/26 11:47:39;;;;;;;;;;;6.30;99.90;;;;;;5064516;28;19909;-76
2021/12/26 11:50:18;;;;;;;;;;;6.20;99.90;;;;;;5065028;28;19967;-76
2021/12/26 11:53:00;;;;;;;;;;;6.30;99.90;;;;;;5064764;28;19979;-77
2021/12/26 11:55:32;;;;;;;;;;;6.40;99.90;;;;;;5044772;28;19905;-77
2021/12/26 11:58:16;;;;;;;;;;;6.40;99.90;;;;;;5059425;28;19967;-77
2021/12/26 12:00:47;;;;;;;;;;;6.40;99.90;;;;;;5064528;28;19909;-77
2021/12/26 12:03:17;;;;;;;;;;;6.40;99.90;;;;;;5062451;28;19955;-75
2021/12/26 12:05:44;;;;;;;;;;;6.60;99.90;;;;;;5063537;28;19912;-78
2021/12/26 12:08:11;;;;;;;;;;;6.60;99.90;;;;;;5042610;28;19920;-76
2021/12/26 12:10:41;;;;;;;;;;;6.70;99.90;;;;;;5044996;28;20093;-75
2021/12/26 12:13:07;;;;;;;;;;;6.50;98.80;;;;;;5063995;28;19905;-76
2021/12/26 12:15:40;;;;;;;;;;;6.50;99.90;;;;;;5063523;28;19943;-76
2021/12/26 12:18:07;;;;;;;;;;;6.50;99.60;;;;;;5064665;28;19912;-76
2021/12/26 12:20:33;;;;;;;;;;;6.70;99.90;;;;;;5063116;28;19936;-77
2021/12/26 12:23:04;;;;;;;;;;;6.90;98.80;;;;;;5064093;28;19909;-76
2021/12/26 12:25:33;;;;;;;;;;;6.60;99.60;;;;;;5046707;28;19912;-76
2021/12/26 12:28:08;;;;;;;;;;;6.50;99.90;;;;;;5047821;28;20374;-75
2021/12/26 12:30:34;;;;;;;;;;;6.50;99.70;;;;;;5063257;28;19926;-76
2021/12/26 12:33:16;;;;;;;;;;;6.40;99.90;;;;;;5042252;28;19960;-76
2021/12/26 12:35:47;;;;;;;;;;;6.30;99.60;;;;;;5024897;28;19944;-77
2021/12/26 12:38:34;;;;;;;;;;;6.20;99.70;;;;;;5042779;28;19936;-76
2021/12/26 12:41:01;;;;;;;;;;;6.10;98.90;;;;;;5042628;28;19905;-76
2021/12/26 12:43:41;;;;;;;;;;;5.90;99.40;;;;;;5043332;28;19905;-77
2021/12/26 12:46:08;;;;;;;;;;;5.80;99.20;;;;;;5042184;28;19975;-75
2021/12/26 12:48:40;;;;;;;;;;;6.10;99.90;;;;;;5041553;28;19912;-77
2021/12/26 12:51:15;;;;;;;;;;;6.60;99.90;;;;;;5043248;28;19915;-77
2021/12/26 12:53:43;;;;;;;;;;;6.70;98.30;;;;;;5043829;28;19917;-75
2021/12/26 12:56:26;;;;;;;;;;;6.00;98.90;;;;;;5042180;28;19912;-75
2021/12/26 12:59:12;;;;;;;;;;;5.10;98.90;;;;;;5022252;28;19964;-76
2021/12/26 13:01:39;;;;;;;;;;;4.20;99.90;;;;;;5005647;28;19909;-76
2021/12/26 13:04:04;;;;;;;;;;;3.50;99.90;;;;;;5022120;28;19959;-76
2021/12/26 13:06:30;;;;;;;;;;;2.90;99.90;;;;;;5035253;28;19905;-76
2021/12/26 13:09:52;;;;;;;5.10;1.60;;;2.30;99.90;;;;;;5080436;28;20390;-74
2021/12/26 13:12:19;;;;;;;4.13;2.05;;;2.10;99.90;;;;;;5080246;28;20469;-76
2021/12/26 13:15:04;;;;;;;4.60;1.77;;;1.80;99.90;;;;;;5078500;28;20017;-76
2021/12/26 13:17:36;;;;;;;3.63;1.20;;;1.60;99.90;;;;;;5072691;28;20024;-77
2021/12/26 13:20:06;;;;;;;1.60;1.13;;;1.50;99.90;;;;;;5070677;28;20033;-74
2021/12/26 13:22:50;;;;;;;4.57;1.63;;;1.40;99.90;;;;;;5080311;28;20033;-74
2021/12/26 13:25:37;;;;;;;2.47;1.38;;;1.40;99.90;;;;;;5060172;28;20064;-73
2021/12/26 13:28:19;;;;;;;2.38;1.25;;;1.40;99.90;;;;;;5070434;28;20040;-77
2021/12/26 13:30:48;;;;;;;1.70;1.00;;;1.30;99.90;;;;;;5061211;28;20056;-74
2021/12/26 13:33:14;;;;;;;2.58;1.30;;;1.20;99.90;;;;;;5059686;28;20465;-74
2021/12/26 13:35:40;;;;;;;3.55;1.13;;;1.10;99.90;;;;;;5060273;28;20051;-74
2021/12/26 13:38:06;;;;;;;3.20;1.15;;;1.00;99.90;;;;;;5059613;28;20029;-73
2021/12/26 13:40:38;;;;;;;2.42;0.80;;;0.90;99.90;;;;;;5058690;28;20120;-76
2021/12/26 13:43:06;;;;;;;7.07;1.80;;;0.80;99.90;;;;;;5058230;28;20052;-76
2021/12/26 13:45:37;;;;;;;2.90;1.45;;;0.70;99.90;;;;;;5056577;28;20033;-74
2021/12/26 13:48:08;;;;;;;3.30;1.17;;;0.60;99.90;;;;;;5059078;28;20044;-73
2021/12/26 13:50:34;;;;;;;1.70;0.93;;;0.50;99.90;;;;;;5057675;28;20032;-74
2021/12/26 13:53:06;;;;;;;3.13;1.15;;;0.50;99.90;;;;;;5058318;28;20033;-75
2021/12/26 13:55:39;;;;;;;3.08;1.23;;;0.50;99.90;;;;;;5059885;28;20029;-75
2021/12/26 13:58:09;;;;;;;4.22;1.65;;;0.40;99.90;;;;;;5058760;28;20072;-74
2021/12/26 14:00:57;;;;;;;3.35;1.88;;;0.30;99.90;;;;;;5056901;28;20044;-74
2021/12/26 14:03:23;;;;;;;3.50;1.65;;;0.20;99.90;;;;;;5049612;28;20033;-72
2021/12/26 14:05:49;;;;;;;2.67;1.65;;;0.20;99.90;;;;;;5057989;28;20033;-73
2021/12/26 14:08:26;;;;;;;4.53;1.90;;;0.20;99.90;;;;;;5057382;28;20067;-72
2021/12/26 14:11:14;;;;;;;2.92;1.40;;;0.20;99.90;;;;;;5058756;28;20040;-73
2021/12/26 14:13:52;;;;;;;2.67;1.40;;;0.10;99.90;;;;;;5058455;28;20034;-74
2021/12/26 14:16:30;;;;;;;5.50;1.63;;;0.10;99.90;;;;;;5058904;28;20041;-73
2021/12/26 14:19:09;;;;;;;2.53;1.20;;;0.00;99.90;;;;;;5058195;28;20195;-73
2021/12/26 14:21:52;;;;;;;2.08;1.40;;;-0.10;99.90;;;;;;5041908;28;20492;-74
2021/12/26 14:24:20;;;;;;;4.20;1.60;;;-0.20;99.90;;;;;;5044523;28;20139;-73
2021/12/26 14:26:51;;;;;;;4.18;1.92;;;-0.20;99.90;;;;;;5043863;28;20105;-74
2021/12/26 14:29:20;;;;;;;5.75;1.50;;;-0.30;99.90;;;;;;5044209;28;20033;-71
2021/12/26 14:31:52;;;;;;;4.88;1.92;;;-0.30;99.90;;;;;;5045877;28;20079;-72